createdAt,value
2023-05-09T00:00:08.913Z,13.7
2023-05-09T00:02:35.569Z,12.6
2023-05-09T00:05:02.203Z,13.7
2023-05-09T00:07:28.899Z,12.6
2023-05-09T00:09:55.621Z,13.1
2023-05-09T00:12:22.257Z,13.3
2023-05-09T00:14:47.567Z,13.2
2023-05-09T00:17:14.159Z,14.2
2023-05-09T00:19:40.849Z,12.5
2023-05-09T00:22:06.192Z,13.1
2023-05-09T00:26:59.464Z,14.7
2023-05-09T00:29:26.142Z,13.2
2023-05-09T00:31:52.826Z,14.1
2023-05-09T00:34:19.506Z,13.5
2023-05-09T00:36:46.190Z,13.5
2023-05-09T00:39:12.887Z,13.3
2023-05-09T00:41:39.564Z,12.9
2023-05-09T00:44:06.286Z,13.3
2023-05-09T00:46:32.981Z,14.2
2023-05-09T00:51:26.328Z,14.2
2023-05-09T00:53:52.999Z,15.4
2023-05-09T00:56:19.672Z,16.4
2023-05-09T00:58:44.890Z,15.8
2023-05-09T01:01:11.579Z,15.8
2023-05-09T01:03:38.345Z,15.8
2023-05-09T01:06:04.965Z,13
2023-05-09T01:08:31.631Z,14.5
2023-05-09T01:10:58.328Z,13.3
2023-05-09T01:13:25.014Z,13.7
2023-05-09T01:15:51.693Z,15.9
2023-05-09T01:18:18.368Z,15.1
2023-05-09T01:20:45.127Z,13.3
2023-05-09T01:23:11.757Z,13.5
2023-05-09T01:25:38.424Z,13.7
2023-05-09T01:28:05.122Z,13.9
2023-05-09T01:30:30.323Z,14.5
2023-05-09T01:32:57.008Z,14.7
2023-05-09T01:35:23.709Z,14.7
2023-05-09T01:37:50.383Z,15.3
2023-05-09T01:40:17.061Z,15.9
2023-05-09T01:42:43.744Z,15.9
2023-05-09T01:45:10.485Z,16.6
2023-05-09T01:47:37.135Z,18.6
2023-05-09T01:50:03.811Z,15.1
2023-05-09T01:52:30.491Z,15.8
2023-05-09T01:54:57.170Z,14.5
2023-05-09T01:57:23.863Z,14.2
2023-05-09T01:59:50.577Z,16.4
2023-05-09T02:02:15.791Z,16.1
2023-05-09T02:04:42.503Z,15.2
2023-05-09T02:07:09.131Z,16.4
2023-05-09T02:09:35.820Z,15.5
2023-05-09T02:12:02.584Z,16.4
2023-05-09T02:14:29.217Z,16.4
2023-05-09T02:16:55.878Z,16.2
2023-05-09T02:19:22.570Z,16.7
2023-05-09T02:21:49.253Z,15.1
2023-05-09T02:24:15.941Z,17
2023-05-09T02:26:42.619Z,18.4
2023-05-09T02:29:09.303Z,17.6
2023-05-09T02:31:35.977Z,17
2023-05-09T02:34:01.220Z,17.4
2023-05-09T02:36:27.922Z,17.9
2023-05-09T02:38:54.593Z,17
2023-05-09T02:41:21.248Z,15.6
2023-05-09T02:46:14.630Z,16.9
2023-05-09T02:48:41.301Z,16.7
2023-05-09T02:51:08.096Z,16.9
2023-05-09T02:53:34.668Z,17
2023-05-09T02:56:01.396Z,16.9
2023-05-09T02:58:28.094Z,17.7
2023-05-09T03:00:54.727Z,17.2
2023-05-09T03:03:21.424Z,18
2023-05-09T03:05:48.095Z,18.9
2023-05-09T03:08:13.315Z,17.3
2023-05-09T03:10:40.033Z,18.9
2023-05-09T03:13:06.676Z,17.7
2023-05-09T03:15:33.440Z,19.9
2023-05-09T03:18:00.052Z,18.4
2023-05-09T03:20:26.734Z,20.5
2023-05-09T03:22:53.431Z,18.3
2023-05-09T03:25:20.098Z,18.6
2023-05-09T03:27:46.804Z,19.8
2023-05-09T03:30:13.479Z,20.5
2023-05-09T03:32:40.151Z,19.6
2023-05-09T03:35:06.834Z,20.7
2023-05-09T03:37:33.567Z,22.1
2023-05-09T03:39:58.750Z,21.6
2023-05-09T03:42:25.462Z,20.1
2023-05-09T03:44:52.147Z,21.8
2023-05-09T03:47:18.912Z,21.1
2023-05-09T03:49:45.522Z,18.3
2023-05-09T03:52:12.173Z,18.1
2023-05-09T03:54:38.848Z,18.2
2023-05-09T03:57:05.535Z,18.9
2023-05-09T03:59:32.252Z,20.6
2023-05-09T04:01:58.905Z,17.1
2023-05-09T04:04:25.593Z,17.4
2023-05-09T04:06:52.283Z,16.9
2023-05-09T04:09:18.961Z,16.8
2023-05-09T04:11:44.183Z,19.1
2023-05-09T04:14:10.866Z,18.6
2023-05-09T04:16:37.539Z,21.1
2023-05-09T04:19:04.232Z,16.1
2023-05-09T04:21:30.940Z,16.5
2023-05-09T04:23:57.632Z,15.9
2023-05-09T04:26:24.283Z,15.7
2023-05-09T04:28:50.960Z,16.9
2023-05-09T04:31:17.701Z,17.3
2023-05-09T04:33:44.352Z,18.9
2023-05-09T04:36:11.066Z,20.6
2023-05-09T04:38:37.750Z,19
2023-05-09T04:43:31.078Z,17.4
2023-05-09T04:45:56.368Z,21
2023-05-09T04:48:22.980Z,19.3
2023-05-09T04:50:49.649Z,18.2
2023-05-09T04:53:16.354Z,19.8
2023-05-09T04:55:43.035Z,19.6
2023-05-09T04:58:09.712Z,19.3
2023-05-09T05:00:36.394Z,20.9
2023-05-09T05:03:03.134Z,19.7
2023-05-09T05:05:29.772Z,17.9
2023-05-09T05:07:56.460Z,18.9
2023-05-09T05:10:23.127Z,19.8
2023-05-09T05:12:49.839Z,19.6
2023-05-09T05:15:16.507Z,19.9
2023-05-09T05:17:43.183Z,19.6
2023-05-09T05:20:08.414Z,20.5
2023-05-09T05:22:35.090Z,20
2023-05-09T05:25:01.772Z,19.4
2023-05-09T05:27:28.516Z,20.4
2023-05-09T05:29:55.143Z,21
2023-05-09T05:32:21.836Z,20.5
2023-05-09T05:34:48.516Z,20.9
2023-05-09T05:37:15.200Z,21.2
2023-05-09T05:39:41.888Z,21.8
2023-05-09T05:42:08.590Z,21
2023-05-09T05:44:35.291Z,20.7
2023-05-09T05:47:01.924Z,20.1
2023-05-09T05:49:28.847Z,20.2
2023-05-09T05:51:53.839Z,22.4
2023-05-09T05:54:20.573Z,22
2023-05-09T05:56:47.220Z,22.6
2023-05-09T05:59:13.921Z,21.5
2023-05-09T06:01:40.585Z,20.9
2023-05-09T06:04:07.285Z,22.7
2023-05-09T06:06:33.944Z,22.3
2023-05-09T06:09:00.648Z,21.3
2023-05-09T06:11:27.381Z,22
2023-05-09T06:13:53.998Z,21.8
2023-05-09T06:16:20.787Z,21.4
2023-05-09T06:18:47.399Z,22.6
2023-05-09T06:21:14.062Z,23.4
2023-05-09T06:23:39.276Z,22.9
2023-05-09T06:28:32.660Z,22
2023-05-09T06:33:26.020Z,24.4
2023-05-09T06:35:52.702Z,22.1
2023-05-09T06:38:19.380Z,22.7
2023-05-09T06:40:46.073Z,22.2
2023-05-09T06:43:12.757Z,22.6
2023-05-09T06:45:39.426Z,22.8
2023-05-09T06:48:06.132Z,21.5
2023-05-09T06:50:32.807Z,22.3
2023-05-09T06:52:59.510Z,22.1
2023-05-09T06:57:51.402Z,21.6
2023-05-09T07:00:18.091Z,21.6
2023-05-09T07:02:43.357Z,21.1
2023-05-09T07:05:08.543Z,21.2
2023-05-09T07:07:35.237Z,19.4
2023-05-09T07:12:28.610Z,18.9
2023-05-09T07:14:55.291Z,20
2023-05-09T07:17:21.981Z,19.9
2023-05-09T07:19:48.686Z,19.1
2023-05-09T07:22:15.348Z,20.6
2023-05-09T07:24:42.038Z,19
2023-05-09T07:27:08.725Z,19.2
2023-05-09T07:29:35.401Z,19
2023-05-09T07:32:02.081Z,18.2
2023-05-09T07:34:28.769Z,17.5
2023-05-09T07:36:55.450Z,17.5
2023-05-09T07:39:22.140Z,16.8
2023-05-09T07:41:47.358Z,17.7
2023-05-09T07:44:14.037Z,18.7
2023-05-09T07:46:40.727Z,17.1
2023-05-09T07:49:07.412Z,16.1
2023-05-09T07:51:34.099Z,16.5
2023-05-09T07:54:00.775Z,15.5
2023-05-09T07:56:27.472Z,14.9
2023-05-09T07:58:54.134Z,15.8
2023-05-09T08:01:19.397Z,16.3
2023-05-09T08:03:44.618Z,15.5
2023-05-09T08:06:11.302Z,15.2
2023-05-09T08:11:04.669Z,12.8
2023-05-09T08:13:31.352Z,14
2023-05-09T08:15:58.057Z,13.2
2023-05-09T08:18:24.722Z,12.2
2023-05-09T08:20:51.409Z,14
2023-05-09T08:30:38.152Z,11.5
2023-05-09T08:33:03.401Z,10.3
2023-05-09T08:35:28.641Z,9.4
2023-05-09T08:37:53.859Z,10.9
2023-05-09T08:40:20.562Z,10
2023-05-09T08:42:47.229Z,9.9
2023-05-09T08:45:13.909Z,8.9
2023-05-09T08:47:40.614Z,9.8
2023-05-09T08:50:07.272Z,8.6
2023-05-09T08:52:34.090Z,8.6
2023-05-09T08:55:00.648Z,8.2
2023-05-09T08:57:27.495Z,8.5
2023-05-09T08:59:52.699Z,5.9
2023-05-09T09:02:17.897Z,5.7
2023-05-09T09:04:44.510Z,6.1
2023-05-09T09:07:11.234Z,8.4
2023-05-09T09:09:37.876Z,8.7
2023-05-09T09:12:04.565Z,6.9
2023-05-09T09:19:24.628Z,8.3
2023-05-09T09:21:51.326Z,8.1
2023-05-09T09:24:17.964Z,6.4
2023-05-09T09:26:44.659Z,8.3
2023-05-09T09:29:11.375Z,6.9
2023-05-09T09:31:36.580Z,6.9
2023-05-09T09:34:03.306Z,7.4
2023-05-09T09:36:28.495Z,7.6
2023-05-09T09:38:55.228Z,6.3
2023-05-09T09:41:21.859Z,6.1
2023-05-09T09:43:48.548Z,7.5
2023-05-09T09:46:15.226Z,6.4
2023-05-09T09:48:41.970Z,7.3
2023-05-09T09:51:08.597Z,7.6
2023-05-09T09:53:35.359Z,7.7
2023-05-09T09:56:00.522Z,7.2
2023-05-09T09:58:27.212Z,7.5
2023-05-09T10:00:52.509Z,6.8
2023-05-09T10:03:19.114Z,7.1
2023-05-09T10:05:45.794Z,7.1
2023-05-09T10:13:05.869Z,6.9
2023-05-09T10:15:32.545Z,7.3
2023-05-09T10:17:59.285Z,5.2
2023-05-09T10:20:25.923Z,5.5
2023-05-09T10:22:52.688Z,6.5
2023-05-09T10:25:17.978Z,8.3
2023-05-09T10:27:43.067Z,9.7
2023-05-09T10:30:09.760Z,9.4
2023-05-09T10:32:36.658Z,11.6
2023-05-09T10:37:29.902Z,9.8
2023-05-09T10:39:56.511Z,9
2023-05-09T10:42:23.208Z,11.5
2023-05-09T10:44:49.906Z,11.2
2023-05-09T10:47:16.616Z,12.1
2023-05-09T10:49:43.399Z,10.6
2023-05-09T10:52:09.986Z,10.6
2023-05-09T10:54:36.616Z,10.9
2023-05-09T10:59:30.077Z,9.5
2023-05-09T11:01:55.369Z,8.5
2023-05-09T11:04:21.909Z,7.5
2023-05-09T11:06:47.224Z,8.3
2023-05-09T11:09:13.827Z,8.5
2023-05-09T11:14:07.244Z,9.4
2023-05-09T11:16:33.869Z,8.6
2023-05-09T11:21:27.237Z,7.2
2023-05-09T11:23:54.000Z,7.4
2023-05-09T11:26:20.613Z,7.6
2023-05-09T11:28:47.293Z,7.7
2023-05-09T11:31:14.064Z,8
2023-05-09T11:33:40.805Z,7.8
2023-05-09T11:36:07.553Z,7
2023-05-09T11:38:32.710Z,7.5
2023-05-09T11:40:59.393Z,8.6
2023-05-09T11:43:26.021Z,8.1
2023-05-09T11:45:52.641Z,6.2
2023-05-09T11:48:19.323Z,6.7
2023-05-09T11:50:46.169Z,6.1
2023-05-09T11:53:12.799Z,6.9
2023-05-09T11:55:39.408Z,8
2023-05-09T11:58:06.150Z,7.1
2023-05-09T12:00:32.821Z,6.2
2023-05-09T12:02:59.524Z,5.8
2023-05-09T12:07:51.393Z,6.1
2023-05-09T12:10:16.595Z,5.6
2023-05-09T12:12:43.378Z,5.7
2023-05-09T12:15:08.519Z,5.8
2023-05-09T12:17:33.872Z,5.4
2023-05-09T12:20:00.447Z,4.7
2023-05-09T12:22:27.109Z,4.7
2023-05-09T12:24:53.820Z,4.7
2023-05-09T12:27:20.493Z,4
2023-05-09T12:29:47.175Z,3.9
2023-05-09T12:32:13.965Z,4.5
2023-05-09T12:34:40.662Z,5
2023-05-09T12:37:07.255Z,4.5
2023-05-09T12:39:32.486Z,3.6
2023-05-09T12:41:59.251Z,4.3
2023-05-09T12:44:24.612Z,4.5
2023-05-09T12:46:51.231Z,4.6
2023-05-09T12:49:17.898Z,4.1
2023-05-09T12:51:44.444Z,4.5
2023-05-09T12:54:11.255Z,4.5
2023-05-09T12:56:37.977Z,3.7
2023-05-09T12:59:04.639Z,3.5
2023-05-09T13:01:31.231Z,4.5
2023-05-09T13:03:57.953Z,4.7
2023-05-09T13:06:24.565Z,4.2
2023-05-09T13:08:51.321Z,4.3
2023-05-09T13:11:17.955Z,4.1
2023-05-09T13:13:44.688Z,4
2023-05-09T13:16:09.837Z,4.2
2023-05-09T13:21:03.195Z,3.6
2023-05-09T13:23:29.921Z,3.5
2023-05-09T13:25:56.634Z,3.7
2023-05-09T13:28:23.258Z,3.9
2023-05-09T13:30:49.932Z,3.9
2023-05-09T13:33:16.627Z,4.1
2023-05-09T13:35:43.309Z,3.7
2023-05-09T13:38:09.986Z,4.5
2023-05-09T13:40:36.688Z,4.7
2023-05-09T13:43:03.376Z,4.2
2023-05-09T13:45:30.056Z,3.6
2023-05-09T13:47:55.285Z,3.8
2023-05-09T13:50:21.962Z,3.6
2023-05-09T13:52:48.639Z,3.6
2023-05-09T13:55:15.416Z,4.2
2023-05-09T13:57:42.050Z,4.3
2023-05-09T14:00:08.707Z,4
2023-05-09T14:02:35.476Z,4.1
2023-05-09T14:05:02.076Z,3.5
2023-05-09T14:09:55.434Z,3.8
2023-05-09T14:14:48.813Z,3.5
2023-05-09T14:17:15.522Z,3.5
2023-05-09T14:19:40.710Z,3.5
2023-05-09T14:24:34.085Z,3.5
2023-05-09T14:26:59.341Z,3.1
2023-05-09T14:29:24.544Z,3.7
2023-05-09T14:31:51.231Z,3.1
2023-05-09T14:34:17.934Z,2.8
2023-05-09T14:36:44.628Z,2.6
2023-05-09T14:39:11.311Z,2.9
2023-05-09T14:41:38.053Z,3.2
2023-05-09T14:44:04.672Z,2.8
2023-05-09T14:46:31.352Z,2.5
2023-05-09T14:48:58.043Z,2.6
2023-05-09T14:51:23.303Z,2.4
2023-05-09T14:53:48.514Z,2.6
2023-05-09T14:58:41.909Z,2.4
2023-05-09T15:01:08.568Z,2.7
2023-05-09T15:03:35.247Z,2.7
2023-05-09T15:06:01.948Z,2.5
2023-05-09T15:08:28.639Z,2.6
2023-05-09T15:10:55.313Z,3.2
2023-05-09T15:13:22.005Z,2.7
2023-05-09T15:15:48.716Z,3
2023-05-09T15:18:15.372Z,4.3
2023-05-09T15:20:42.029Z,7.6
2023-05-09T15:23:08.741Z,5.6
2023-05-09T15:25:34.017Z,5.7
2023-05-09T15:28:00.635Z,4.5
2023-05-09T15:30:27.319Z,3.8
2023-05-09T15:32:54.017Z,4.8
2023-05-09T15:35:20.696Z,4.3
2023-05-09T15:37:47.408Z,4.6
2023-05-09T15:40:14.053Z,4.7
2023-05-09T15:42:40.855Z,6.4
2023-05-09T15:45:07.480Z,6.9
2023-05-09T15:47:34.150Z,7.1
2023-05-09T15:50:00.852Z,6.1
2023-05-09T15:52:27.552Z,6.4
2023-05-09T15:54:54.183Z,7.4
2023-05-09T15:57:19.416Z,7.8
2023-05-09T15:59:46.077Z,7.9
2023-05-09T16:02:12.773Z,6.5
2023-05-09T16:04:39.477Z,7.8
2023-05-09T16:07:06.143Z,7.7
2023-05-09T16:09:32.838Z,8.2
2023-05-09T16:11:59.504Z,7.5
2023-05-09T16:14:26.190Z,8.3
2023-05-09T16:16:52.878Z,6.3
2023-05-09T16:19:19.567Z,6
2023-05-09T16:21:46.250Z,5.7
2023-05-09T16:24:12.936Z,5.5
2023-05-09T16:26:39.625Z,5.1
2023-05-09T16:29:04.850Z,6.1
2023-05-09T16:31:31.523Z,6.9
2023-05-09T16:33:58.201Z,6.8
2023-05-09T16:36:24.889Z,6.5
2023-05-09T16:38:51.571Z,6
2023-05-09T16:41:18.250Z,4.7
2023-05-09T16:43:43.513Z,5.4
2023-05-09T16:46:10.169Z,4.7
2023-05-09T16:48:36.861Z,5.4
2023-05-09T16:51:03.541Z,5.3
2023-05-09T16:53:30.233Z,5.4
2023-05-09T16:55:56.962Z,5.5
2023-05-09T16:58:23.607Z,5.2
2023-05-09T17:00:50.281Z,5.7
2023-05-09T17:03:16.967Z,5.5
2023-05-09T17:05:43.636Z,5.6
2023-05-09T17:08:10.330Z,5.6
2023-05-09T17:10:37.013Z,6.2
2023-05-09T17:13:03.705Z,6.2
2023-05-09T17:15:28.927Z,6.9
2023-05-09T17:17:55.606Z,5.6
2023-05-09T17:20:22.294Z,5.5
2023-05-09T17:22:48.975Z,7.4
2023-05-09T17:25:15.680Z,8.4
2023-05-09T17:27:42.385Z,6.2
2023-05-09T17:30:09.032Z,5.9
2023-05-09T17:32:35.708Z,6.1
2023-05-09T17:35:02.412Z,6.5
2023-05-09T17:37:29.146Z,6.3
2023-05-09T17:39:55.776Z,7.9
2023-05-09T17:42:22.458Z,7.4
2023-05-09T17:44:49.202Z,6.6
2023-05-09T17:47:14.361Z,6.1
2023-05-09T17:49:41.082Z,5.4
2023-05-09T17:52:07.747Z,7.1
2023-05-09T17:57:01.093Z,8.5
2023-05-09T17:59:27.820Z,7
2023-05-09T18:01:54.471Z,7.8
2023-05-09T18:04:21.153Z,7.8
2023-05-09T18:06:47.825Z,8.3
2023-05-09T18:09:14.549Z,8.4
2023-05-09T18:11:41.192Z,7.8
2023-05-09T18:14:07.908Z,9.1
2023-05-09T18:16:34.589Z,8
2023-05-09T18:19:01.273Z,6.1
2023-05-09T18:21:26.467Z,7
2023-05-09T18:23:53.176Z,5.9
2023-05-09T18:26:19.836Z,6
2023-05-09T18:28:46.514Z,5.4
2023-05-09T18:31:13.278Z,5.7
2023-05-09T18:33:39.941Z,6.3
2023-05-09T18:36:06.673Z,6.9
2023-05-09T18:38:33.246Z,5.7
2023-05-09T18:41:00.057Z,5.1
2023-05-09T18:45:53.304Z,6.1
2023-05-09T18:48:20.129Z,5.9
2023-05-09T18:50:46.677Z,6.4
2023-05-09T18:53:11.881Z,7.6
2023-05-09T18:55:38.642Z,7.6
2023-05-09T18:58:05.298Z,7.3
2023-05-09T19:00:31.999Z,7
2023-05-09T19:02:58.625Z,7.5
2023-05-09T19:05:25.405Z,7.8
2023-05-09T19:12:45.503Z,6.7
2023-05-09T19:15:12.118Z,6.3
2023-05-09T19:17:37.437Z,6.2
2023-05-09T19:20:04.031Z,5.7
2023-05-09T19:22:29.296Z,5.1
2023-05-09T19:24:55.885Z,5.8
2023-05-09T19:27:22.595Z,5.2
2023-05-09T19:29:49.299Z,5.7
2023-05-09T19:34:42.642Z,7.1
2023-05-09T19:37:09.497Z,6.3
2023-05-09T19:39:35.986Z,5.3
2023-05-09T19:44:29.369Z,5.5
2023-05-09T19:46:54.619Z,4.7
2023-05-09T19:49:21.296Z,5
2023-05-09T19:51:46.527Z,5.1
2023-05-09T19:54:13.234Z,5
2023-05-09T19:56:39.947Z,3.9
2023-05-09T19:59:06.617Z,4.9
2023-05-09T20:01:33.332Z,4.5
2023-05-09T20:03:59.941Z,4.7
2023-05-09T20:08:53.313Z,6
2023-05-09T20:13:46.676Z,5.2
2023-05-09T20:16:13.469Z,6
2023-05-09T20:18:40.104Z,5.2
2023-05-09T20:23:33.403Z,7.1
2023-05-09T20:26:00.121Z,7.8
2023-05-09T20:28:26.984Z,9.4
2023-05-09T20:33:18.682Z,10.8
2023-05-09T20:35:45.467Z,11.3
2023-05-09T20:38:12.096Z,11
2023-05-09T20:40:38.741Z,10.7
2023-05-09T20:43:05.422Z,12.4
2023-05-09T20:45:32.117Z,11.3
2023-05-09T20:50:25.482Z,10.4
2023-05-09T20:52:52.178Z,5.6
2023-05-09T20:57:45.541Z,5.2
2023-05-09T21:02:39.018Z,5
2023-05-09T21:05:04.134Z,6
2023-05-09T21:07:30.804Z,5.4
2023-05-09T21:12:24.193Z,5.1
2023-05-09T21:14:50.887Z,5.5
2023-05-09T21:17:17.544Z,5.6
2023-05-09T21:22:10.929Z,5.4
2023-05-09T21:24:37.593Z,5.4
2023-05-09T21:29:30.962Z,5.3
2023-05-09T21:31:57.644Z,5
2023-05-09T21:36:51.019Z,5.2
2023-05-09T21:39:17.697Z,4.8
2023-05-09T21:41:44.390Z,5.2
2023-05-09T21:46:36.361Z,4.4
2023-05-09T21:49:02.992Z,5
2023-05-09T21:51:29.671Z,4.5
2023-05-09T21:53:56.366Z,4.1
2023-05-09T21:56:23.024Z,4.6
2023-05-09T22:01:16.514Z,3.7
2023-05-09T22:03:43.083Z,4.6
2023-05-09T22:06:09.836Z,4.6
2023-05-09T22:11:03.126Z,5.2
2023-05-09T22:13:29.918Z,5.1
2023-05-09T22:15:56.579Z,5.2
2023-05-09T22:18:23.201Z,5.2
2023-05-09T22:20:49.869Z,5.6
2023-05-09T22:25:41.797Z,7.3
2023-05-09T22:28:08.451Z,8.7
2023-05-09T22:30:35.150Z,6.5
2023-05-09T22:35:28.497Z,6.9
2023-05-09T22:37:55.211Z,5
2023-05-09T22:40:21.882Z,3.4
2023-05-09T22:42:48.647Z,3.5
2023-05-09T22:45:15.273Z,4.1
2023-05-09T22:50:08.610Z,3.5
2023-05-09T22:52:35.301Z,3.5
2023-05-09T22:55:00.537Z,2.7
2023-05-09T22:59:53.896Z,3.7
2023-05-09T23:02:20.571Z,3.1
2023-05-09T23:04:47.274Z,2.8
2023-05-09T23:07:13.959Z,3.4
2023-05-09T23:09:40.638Z,3.5
2023-05-09T23:14:34.018Z,3.1
2023-05-09T23:17:00.686Z,2.9
2023-05-09T23:19:27.378Z,2.6
2023-05-09T23:24:20.745Z,3.5
2023-05-09T23:31:40.824Z,3.2
2023-05-09T23:34:06.014Z,3.1
2023-05-09T23:36:32.753Z,1.9
2023-05-09T23:38:59.381Z,2.6
2023-05-09T23:41:26.059Z,2.2
2023-05-09T23:43:52.739Z,2
2023-05-09T23:46:19.433Z,1.9
2023-05-09T23:48:46.113Z,2.3
2023-05-09T23:51:12.833Z,1.8
2023-05-09T23:53:39.489Z,2
2023-05-09T23:56:06.174Z,2.5
2023-05-09T23:58:32.866Z,2.1
